sensor_id;sensor_type;location;lat;lon;timestamp;P1;durP1;ratioP1;P2;durP2;ratioP2
38693;SDS011;24447;43.460;25.744;2023-06-19T00:00:56;14.38;;;6.07;;
38693;SDS011;24447;43.460;25.744;2023-06-19T00:03:22;14.00;;;5.82;;
38693;SDS011;24447;43.460;25.744;2023-06-19T00:05:48;14.10;;;5.47;;
38693;SDS011;24447;43.460;25.744;2023-06-19T00:08:14;16.05;;;6.18;;
38693;SDS011;24447;43.460;25.744;2023-06-19T00:10:40;14.18;;;4.95;;
38693;SDS011;24447;43.460;25.744;2023-06-19T00:13:06;16.08;;;7.22;;
38693;SDS011;24447;43.460;25.744;2023-06-19T00:15:31;15.55;;;6.15;;
38693;SDS011;24447;43.460;25.744;2023-06-19T00:17:57;13.57;;;6.25;;
38693;SDS011;24447;43.460;25.744;2023-06-19T00:20:24;10.85;;;5.75;;
38693;SDS011;24447;43.460;25.744;2023-06-19T00:22:50;13.43;;;7.07;;
38693;SDS011;24447;43.460;25.744;2023-06-19T00:25:19;15.73;;;6.28;;
38693;SDS011;24447;43.460;25.744;2023-06-19T00:27:46;20.48;;;7.15;;
38693;SDS011;24447;43.460;25.744;2023-06-19T00:30:12;18.95;;;6.85;;
38693;SDS011;24447;43.460;25.744;2023-06-19T00:32:39;16.38;;;6.93;;
38693;SDS011;24447;43.460;25.744;2023-06-19T00:35:12;14.25;;;6.40;;
38693;SDS011;24447;43.460;25.744;2023-06-19T00:37:40;15.35;;;6.15;;
38693;SDS011;24447;43.460;25.744;2023-06-19T00:40:10;18.50;;;7.10;;
38693;SDS011;24447;43.460;25.744;2023-06-19T00:42:39;15.18;;;6.22;;
38693;SDS011;24447;43.460;25.744;2023-06-19T00:45:06;19.63;;;7.40;;
38693;SDS011;24447;43.460;25.744;2023-06-19T00:47:33;14.48;;;6.80;;
38693;SDS011;24447;43.460;25.744;2023-06-19T00:49:59;14.98;;;6.55;;
38693;SDS011;24447;43.460;25.744;2023-06-19T00:52:25;17.00;;;8.07;;
38693;SDS011;24447;43.460;25.744;2023-06-19T00:54:51;14.23;;;6.95;;
38693;SDS011;24447;43.460;25.744;2023-06-19T00:57:18;18.83;;;6.75;;
38693;SDS011;24447;43.460;25.744;2023-06-19T00:59:44;17.02;;;7.13;;
38693;SDS011;24447;43.460;25.744;2023-06-19T01:02:10;15.35;;;6.70;;
38693;SDS011;24447;43.460;25.744;2023-06-19T01:04:36;13.82;;;6.88;;
38693;SDS011;24447;43.460;25.744;2023-06-19T01:07:03;16.05;;;7.10;;
38693;SDS011;24447;43.460;25.744;2023-06-19T01:09:41;21.40;;;7.50;;
38693;SDS011;24447;43.460;25.744;2023-06-19T01:12:16;16.80;;;7.35;;
38693;SDS011;24447;43.460;25.744;2023-06-19T01:14:54;16.42;;;7.47;;
38693;SDS011;24447;43.460;25.744;2023-06-19T01:17:23;21.00;;;7.07;;
38693;SDS011;24447;43.460;25.744;2023-06-19T01:19:50;17.10;;;9.27;;
38693;SDS011;24447;43.460;25.744;2023-06-19T01:22:23;17.48;;;7.72;;
38693;SDS011;24447;43.460;25.744;2023-06-19T01:24:56;20.58;;;8.35;;
38693;SDS011;24447;43.460;25.744;2023-06-19T01:27:25;16.40;;;7.72;;
38693;SDS011;24447;43.460;25.744;2023-06-19T01:29:55;19.02;;;7.80;;
38693;SDS011;24447;43.460;25.744;2023-06-19T01:32:33;18.70;;;7.75;;
38693;SDS011;24447;43.460;25.744;2023-06-19T01:35:12;24.52;;;9.18;;
38693;SDS011;24447;43.460;25.744;2023-06-19T01:37:39;20.08;;;9.25;;
38693;SDS011;24447;43.460;25.744;2023-06-19T01:40:06;25.52;;;9.20;;
38693;SDS011;24447;43.460;25.744;2023-06-19T01:42:35;20.40;;;9.02;;
38693;SDS011;24447;43.460;25.744;2023-06-19T01:45:03;18.58;;;8.05;;
38693;SDS011;24447;43.460;25.744;2023-06-19T01:47:30;22.33;;;8.88;;
38693;SDS011;24447;43.460;25.744;2023-06-19T01:49:56;21.05;;;10.15;;
38693;SDS011;24447;43.460;25.744;2023-06-19T01:52:23;21.08;;;10.32;;
38693;SDS011;24447;43.460;25.744;2023-06-19T01:54:50;19.65;;;10.40;;
38693;SDS011;24447;43.460;25.744;2023-06-19T01:57:16;25.65;;;10.75;;
38693;SDS011;24447;43.460;25.744;2023-06-19T01:59:43;18.02;;;9.55;;
38693;SDS011;24447;43.460;25.744;2023-06-19T02:02:09;29.20;;;10.68;;
38693;SDS011;24447;43.460;25.744;2023-06-19T02:04:35;22.95;;;10.95;;
38693;SDS011;24447;43.460;25.744;2023-06-19T02:07:01;22.23;;;10.77;;
38693;SDS011;24447;43.460;25.744;2023-06-19T02:09:27;24.40;;;11.35;;
38693;SDS011;24447;43.460;25.744;2023-06-19T02:11:53;30.30;;;10.85;;
38693;SDS011;24447;43.460;25.744;2023-06-19T02:14:19;26.63;;;11.48;;
38693;SDS011;24447;43.460;25.744;2023-06-19T02:16:45;22.70;;;10.80;;
38693;SDS011;24447;43.460;25.744;2023-06-19T02:19:11;18.67;;;9.10;;
38693;SDS011;24447;43.460;25.744;2023-06-19T02:21:37;26.90;;;10.20;;
38693;SDS011;24447;43.460;25.744;2023-06-19T02:24:03;26.13;;;11.10;;
38693;SDS011;24447;43.460;25.744;2023-06-19T02:26:30;26.98;;;12.27;;
38693;SDS011;24447;43.460;25.744;2023-06-19T02:28:56;23.08;;;10.68;;
38693;SDS011;24447;43.460;25.744;2023-06-19T02:31:22;25.90;;;10.63;;
38693;SDS011;24447;43.460;25.744;2023-06-19T02:33:48;28.98;;;10.73;;
38693;SDS011;24447;43.460;25.744;2023-06-19T02:36:14;27.25;;;11.10;;
38693;SDS011;24447;43.460;25.744;2023-06-19T02:38:50;28.90;;;12.43;;
38693;SDS011;24447;43.460;25.744;2023-06-19T02:41:16;29.20;;;11.20;;
38693;SDS011;24447;43.460;25.744;2023-06-19T02:43:44;25.17;;;10.98;;
38693;SDS011;24447;43.460;25.744;2023-06-19T02:46:14;23.40;;;11.52;;
38693;SDS011;24447;43.460;25.744;2023-06-19T02:48:41;22.33;;;10.82;;
38693;SDS011;24447;43.460;25.744;2023-06-19T02:51:07;25.85;;;12.55;;
38693;SDS011;24447;43.460;25.744;2023-06-19T02:53:32;26.90;;;13.10;;
38693;SDS011;24447;43.460;25.744;2023-06-19T02:55:58;26.77;;;12.75;;
38693;SDS011;24447;43.460;25.744;2023-06-19T02:58:24;23.40;;;11.75;;
38693;SDS011;24447;43.460;25.744;2023-06-19T03:00:51;26.10;;;11.05;;
38693;SDS011;24447;43.460;25.744;2023-06-19T03:03:17;35.17;;;13.68;;
38693;SDS011;24447;43.460;25.744;2023-06-19T03:05:43;29.40;;;12.50;;
38693;SDS011;24447;43.460;25.744;2023-06-19T03:08:09;33.00;;;14.07;;
38693;SDS011;24447;43.460;25.744;2023-06-19T03:10:35;23.63;;;11.77;;
38693;SDS011;24447;43.460;25.744;2023-06-19T03:13:01;28.75;;;12.55;;
38693;SDS011;24447;43.460;25.744;2023-06-19T03:15:27;24.67;;;11.70;;
38693;SDS011;24447;43.460;25.744;2023-06-19T03:17:53;28.92;;;11.82;;
38693;SDS011;24447;43.460;25.744;2023-06-19T03:20:19;24.42;;;11.13;;
38693;SDS011;24447;43.460;25.744;2023-06-19T03:22:45;30.35;;;11.10;;
38693;SDS011;24447;43.460;25.744;2023-06-19T03:25:11;25.75;;;11.85;;
38693;SDS011;24447;43.460;25.744;2023-06-19T03:27:37;22.05;;;11.63;;
38693;SDS011;24447;43.460;25.744;2023-06-19T03:30:04;24.17;;;11.68;;
38693;SDS011;24447;43.460;25.744;2023-06-19T03:32:34;24.65;;;10.65;;
38693;SDS011;24447;43.460;25.744;2023-06-19T03:35:03;23.75;;;12.05;;
38693;SDS011;24447;43.460;25.744;2023-06-19T03:37:30;24.03;;;10.87;;
38693;SDS011;24447;43.460;25.744;2023-06-19T03:39:57;23.27;;;11.32;;
38693;SDS011;24447;43.460;25.744;2023-06-19T03:42:23;26.45;;;10.07;;
38693;SDS011;24447;43.460;25.744;2023-06-19T03:44:49;25.65;;;12.32;;
38693;SDS011;24447;43.460;25.744;2023-06-19T03:47:16;24.40;;;11.20;;
38693;SDS011;24447;43.460;25.744;2023-06-19T03:49:42;23.13;;;10.68;;
38693;SDS011;24447;43.460;25.744;2023-06-19T03:52:08;31.40;;;10.88;;
38693;SDS011;24447;43.460;25.744;2023-06-19T03:54:34;25.75;;;10.88;;
38693;SDS011;24447;43.460;25.744;2023-06-19T03:57:00;22.67;;;10.23;;
38693;SDS011;24447;43.460;25.744;2023-06-19T03:59:26;23.40;;;11.23;;
38693;SDS011;24447;43.460;25.744;2023-06-19T04:01:51;24.08;;;11.02;;
38693;SDS011;24447;43.460;25.744;2023-06-19T04:04:17;25.98;;;11.48;;
38693;SDS011;24447;43.460;25.744;2023-06-19T04:06:43;26.20;;;10.90;;
38693;SDS011;24447;43.460;25.744;2023-06-19T04:09:09;21.23;;;11.27;;
38693;SDS011;24447;43.460;25.744;2023-06-19T04:11:35;27.85;;;11.20;;
38693;SDS011;24447;43.460;25.744;2023-06-19T04:14:01;24.25;;;11.00;;
38693;SDS011;24447;43.460;25.744;2023-06-19T04:16:27;23.83;;;12.73;;
38693;SDS011;24447;43.460;25.744;2023-06-19T04:18:53;23.35;;;10.23;;
38693;SDS011;24447;43.460;25.744;2023-06-19T04:21:20;20.92;;;9.63;;
38693;SDS011;24447;43.460;25.744;2023-06-19T04:23:46;20.83;;;10.63;;
38693;SDS011;24447;43.460;25.744;2023-06-19T04:26:12;26.48;;;10.75;;
38693;SDS011;24447;43.460;25.744;2023-06-19T04:28:38;20.25;;;10.15;;
38693;SDS011;24447;43.460;25.744;2023-06-19T04:31:04;21.00;;;10.15;;
38693;SDS011;24447;43.460;25.744;2023-06-19T04:33:30;20.65;;;9.68;;
38693;SDS011;24447;43.460;25.744;2023-06-19T04:35:57;24.10;;;10.60;;
38693;SDS011;24447;43.460;25.744;2023-06-19T04:38:23;21.85;;;9.88;;
38693;SDS011;24447;43.460;25.744;2023-06-19T04:40:50;21.02;;;9.73;;
38693;SDS011;24447;43.460;25.744;2023-06-19T04:43:16;19.80;;;9.05;;
38693;SDS011;24447;43.460;25.744;2023-06-19T04:45:43;21.67;;;8.85;;
38693;SDS011;24447;43.460;25.744;2023-06-19T04:48:09;15.43;;;8.02;;
38693;SDS011;24447;43.460;25.744;2023-06-19T04:50:35;18.83;;;8.85;;
38693;SDS011;24447;43.460;25.744;2023-06-19T04:53:01;20.70;;;8.55;;
38693;SDS011;24447;43.460;25.744;2023-06-19T04:55:27;23.95;;;9.30;;
38693;SDS011;24447;43.460;25.744;2023-06-19T04:57:52;29.73;;;9.93;;
38693;SDS011;24447;43.460;25.744;2023-06-19T05:00:19;18.48;;;8.90;;
38693;SDS011;24447;43.460;25.744;2023-06-19T05:02:46;24.40;;;10.18;;
38693;SDS011;24447;43.460;25.744;2023-06-19T05:05:13;28.77;;;10.18;;
38693;SDS011;24447;43.460;25.744;2023-06-19T05:07:39;19.58;;;9.02;;
38693;SDS011;24447;43.460;25.744;2023-06-19T05:10:05;17.45;;;8.23;;
38693;SDS011;24447;43.460;25.744;2023-06-19T05:12:33;17.63;;;8.77;;
38693;SDS011;24447;43.460;25.744;2023-06-19T05:15:00;18.10;;;9.27;;
38693;SDS011;24447;43.460;25.744;2023-06-19T05:17:26;19.77;;;8.60;;
38693;SDS011;24447;43.460;25.744;2023-06-19T05:19:52;20.58;;;8.40;;
38693;SDS011;24447;43.460;25.744;2023-06-19T05:22:18;16.10;;;7.80;;
38693;SDS011;24447;43.460;25.744;2023-06-19T05:24:46;16.27;;;8.30;;
38693;SDS011;24447;43.460;25.744;2023-06-19T05:27:12;18.92;;;7.53;;
38693;SDS011;24447;43.460;25.744;2023-06-19T05:29:38;15.23;;;7.13;;
38693;SDS011;24447;43.460;25.744;2023-06-19T05:32:04;15.38;;;7.78;;
38693;SDS011;24447;43.460;25.744;2023-06-19T05:34:30;19.80;;;7.25;;
38693;SDS011;24447;43.460;25.744;2023-06-19T05:36:57;18.38;;;7.30;;
38693;SDS011;24447;43.460;25.744;2023-06-19T05:39:25;16.58;;;7.28;;
38693;SDS011;24447;43.460;25.744;2023-06-19T05:41:51;13.43;;;6.38;;
38693;SDS011;24447;43.460;25.744;2023-06-19T05:44:17;12.93;;;5.97;;
38693;SDS011;24447;43.460;25.744;2023-06-19T05:46:44;14.32;;;7.03;;
38693;SDS011;24447;43.460;25.744;2023-06-19T05:49:10;15.32;;;7.22;;
38693;SDS011;24447;43.460;25.744;2023-06-19T05:51:36;14.82;;;7.95;;
38693;SDS011;24447;43.460;25.744;2023-06-19T05:54:02;13.95;;;7.22;;
38693;SDS011;24447;43.460;25.744;2023-06-19T05:56:32;15.02;;;6.45;;
38693;SDS011;24447;43.460;25.744;2023-06-19T05:58:58;17.77;;;8.13;;
38693;SDS011;24447;43.460;25.744;2023-06-19T06:01:26;20.70;;;8.60;;
38693;SDS011;24447;43.460;25.744;2023-06-19T06:03:55;13.85;;;7.05;;
38693;SDS011;24447;43.460;25.744;2023-06-19T06:06:24;16.05;;;7.82;;
38693;SDS011;24447;43.460;25.744;2023-06-19T06:08:51;12.82;;;7.15;;
38693;SDS011;24447;43.460;25.744;2023-06-19T06:11:17;13.13;;;6.53;;
38693;SDS011;24447;43.460;25.744;2023-06-19T06:13:43;15.75;;;7.32;;
38693;SDS011;24447;43.460;25.744;2023-06-19T06:16:09;13.95;;;6.53;;
38693;SDS011;24447;43.460;25.744;2023-06-19T06:18:35;15.48;;;6.57;;
38693;SDS011;24447;43.460;25.744;2023-06-19T06:21:01;9.57;;;5.32;;
38693;SDS011;24447;43.460;25.744;2023-06-19T06:23:27;11.77;;;5.75;;
38693;SDS011;24447;43.460;25.744;2023-06-19T06:25:53;15.43;;;6.47;;
38693;SDS011;24447;43.460;25.744;2023-06-19T06:28:26;13.32;;;6.00;;
38693;SDS011;24447;43.460;25.744;2023-06-19T06:30:52;14.48;;;6.15;;
38693;SDS011;24447;43.460;25.744;2023-06-19T06:33:18;10.52;;;5.18;;
38693;SDS011;24447;43.460;25.744;2023-06-19T06:35:44;10.80;;;5.10;;
38693;SDS011;24447;43.460;25.744;2023-06-19T06:38:09;8.82;;;5.10;;
38693;SDS011;24447;43.460;25.744;2023-06-19T06:40:36;12.95;;;5.70;;
38693;SDS011;24447;43.460;25.744;2023-06-19T06:43:02;11.77;;;6.13;;
38693;SDS011;24447;43.460;25.744;2023-06-19T06:45:27;10.15;;;5.25;;
38693;SDS011;24447;43.460;25.744;2023-06-19T06:47:53;10.27;;;5.93;;
38693;SDS011;24447;43.460;25.744;2023-06-19T06:50:19;11.50;;;5.72;;
38693;SDS011;24447;43.460;25.744;2023-06-19T06:52:45;10.75;;;4.97;;
38693;SDS011;24447;43.460;25.744;2023-06-19T06:55:11;10.43;;;6.10;;
38693;SDS011;24447;43.460;25.744;2023-06-19T06:57:37;12.68;;;5.47;;
38693;SDS011;24447;43.460;25.744;2023-06-19T07:00:04;12.05;;;5.97;;
38693;SDS011;24447;43.460;25.744;2023-06-19T07:02:32;9.07;;;5.75;;
38693;SDS011;24447;43.460;25.744;2023-06-19T07:04:58;9.02;;;5.25;;
38693;SDS011;24447;43.460;25.744;2023-06-19T07:07:23;11.70;;;5.38;;
38693;SDS011;24447;43.460;25.744;2023-06-19T07:09:49;10.30;;;4.60;;
38693;SDS011;24447;43.460;25.744;2023-06-19T07:12:15;12.95;;;5.68;;
38693;SDS011;24447;43.460;25.744;2023-06-19T07:14:41;9.35;;;4.60;;
38693;SDS011;24447;43.460;25.744;2023-06-19T07:17:07;10.13;;;5.57;;
38693;SDS011;24447;43.460;25.744;2023-06-19T07:19:33;9.02;;;4.65;;
38693;SDS011;24447;43.460;25.744;2023-06-19T07:21:59;8.32;;;4.82;;
38693;SDS011;24447;43.460;25.744;2023-06-19T07:24:25;7.57;;;4.85;;
38693;SDS011;24447;43.460;25.744;2023-06-19T07:26:51;13.73;;;5.20;;
38693;SDS011;24447;43.460;25.744;2023-06-19T07:29:17;7.22;;;4.28;;
38693;SDS011;24447;43.460;25.744;2023-06-19T07:31:43;10.38;;;4.88;;
38693;SDS011;24447;43.460;25.744;2023-06-19T07:34:09;6.50;;;4.20;;
38693;SDS011;24447;43.460;25.744;2023-06-19T07:36:35;9.18;;;5.50;;
38693;SDS011;24447;43.460;25.744;2023-06-19T07:39:01;8.40;;;4.90;;
38693;SDS011;24447;43.460;25.744;2023-06-19T07:41:27;11.32;;;5.63;;
38693;SDS011;24447;43.460;25.744;2023-06-19T07:43:53;15.30;;;5.57;;
38693;SDS011;24447;43.460;25.744;2023-06-19T07:46:18;10.63;;;4.57;;
38693;SDS011;24447;43.460;25.744;2023-06-19T07:48:44;11.55;;;5.30;;
38693;SDS011;24447;43.460;25.744;2023-06-19T07:51:10;10.02;;;5.07;;
38693;SDS011;24447;43.460;25.744;2023-06-19T07:53:36;13.52;;;4.88;;
38693;SDS011;24447;43.460;25.744;2023-06-19T07:56:04;8.23;;;4.72;;
38693;SDS011;24447;43.460;25.744;2023-06-19T07:58:30;9.50;;;5.43;;
38693;SDS011;24447;43.460;25.744;2023-06-19T08:00:56;11.23;;;5.57;;
38693;SDS011;24447;43.460;25.744;2023-06-19T08:03:22;10.57;;;5.32;;
38693;SDS011;24447;43.460;25.744;2023-06-19T08:05:49;9.20;;;4.68;;
38693;SDS011;24447;43.460;25.744;2023-06-19T08:08:15;9.50;;;5.50;;
38693;SDS011;24447;43.460;25.744;2023-06-19T08:10:41;12.52;;;5.60;;
38693;SDS011;24447;43.460;25.744;2023-06-19T08:13:07;7.80;;;4.97;;
38693;SDS011;24447;43.460;25.744;2023-06-19T08:15:33;16.52;;;5.55;;
38693;SDS011;24447;43.460;25.744;2023-06-19T08:18:00;9.63;;;4.90;;
38693;SDS011;24447;43.460;25.744;2023-06-19T08:20:25;9.02;;;5.05;;
38693;SDS011;24447;43.460;25.744;2023-06-19T08:22:51;8.60;;;5.43;;
38693;SDS011;24447;43.460;25.744;2023-06-19T08:25:17;8.60;;;5.07;;
38693;SDS011;24447;43.460;25.744;2023-06-19T08:27:43;13.63;;;5.75;;
38693;SDS011;24447;43.460;25.744;2023-06-19T08:30:10;9.05;;;5.03;;
38693;SDS011;24447;43.460;25.744;2023-06-19T08:32:36;9.27;;;5.28;;
38693;SDS011;24447;43.460;25.744;2023-06-19T08:35:02;7.85;;;4.70;;
38693;SDS011;24447;43.460;25.744;2023-06-19T08:37:29;10.15;;;4.82;;
38693;SDS011;24447;43.460;25.744;2023-06-19T08:39:55;12.88;;;5.18;;
38693;SDS011;24447;43.460;25.744;2023-06-19T08:42:24;9.88;;;4.85;;
38693;SDS011;24447;43.460;25.744;2023-06-19T08:44:50;8.77;;;4.82;;
38693;SDS011;24447;43.460;25.744;2023-06-19T08:47:16;8.40;;;4.80;;
38693;SDS011;24447;43.460;25.744;2023-06-19T08:49:42;10.77;;;5.55;;
38693;SDS011;24447;43.460;25.744;2023-06-19T08:52:08;9.05;;;4.72;;
38693;SDS011;24447;43.460;25.744;2023-06-19T08:54:34;10.10;;;5.55;;
38693;SDS011;24447;43.460;25.744;2023-06-19T08:57:08;7.97;;;4.90;;
38693;SDS011;24447;43.460;25.744;2023-06-19T08:59:36;10.30;;;5.35;;
38693;SDS011;24447;43.460;25.744;2023-06-19T09:02:01;7.47;;;4.53;;
38693;SDS011;24447;43.460;25.744;2023-06-19T09:04:27;6.82;;;4.55;;
38693;SDS011;24447;43.460;25.744;2023-06-19T09:06:57;8.48;;;5.45;;
38693;SDS011;24447;43.460;25.744;2023-06-19T09:09:24;10.15;;;5.28;;
38693;SDS011;24447;43.460;25.744;2023-06-19T09:17:04;8.80;;;4.65;;
38693;SDS011;24447;43.460;25.744;2023-06-19T09:19:32;8.02;;;4.88;;
38693;SDS011;24447;43.460;25.744;2023-06-19T09:24:36;8.48;;;5.53;;
38693;SDS011;24447;43.460;25.744;2023-06-19T09:27:07;7.65;;;5.25;;
38693;SDS011;24447;43.460;25.744;2023-06-19T09:29:47;10.40;;;5.28;;
38693;SDS011;24447;43.460;25.744;2023-06-19T09:32:21;10.40;;;5.30;;
38693;SDS011;24447;43.460;25.744;2023-06-19T09:34:48;12.95;;;6.25;;
38693;SDS011;24447;43.460;25.744;2023-06-19T09:37:17;9.98;;;5.05;;
38693;SDS011;24447;43.460;25.744;2023-06-19T09:39:50;9.48;;;5.65;;
38693;SDS011;24447;43.460;25.744;2023-06-19T09:42:20;9.57;;;4.97;;
38693;SDS011;24447;43.460;25.744;2023-06-19T09:44:54;8.90;;;5.05;;
38693;SDS011;24447;43.460;25.744;2023-06-19T09:47:25;9.35;;;4.93;;
38693;SDS011;24447;43.460;25.744;2023-06-19T09:49:54;7.95;;;4.53;;
38693;SDS011;24447;43.460;25.744;2023-06-19T09:52:21;6.93;;;4.38;;
38693;SDS011;24447;43.460;25.744;2023-06-19T09:54:51;14.82;;;6.15;;
38693;SDS011;24447;43.460;25.744;2023-06-19T09:57:18;8.07;;;4.45;;
38693;SDS011;24447;43.460;25.744;2023-06-19T09:59:49;9.27;;;5.03;;
38693;SDS011;24447;43.460;25.744;2023-06-19T10:02:19;8.60;;;5.20;;
38693;SDS011;24447;43.460;25.744;2023-06-19T10:04:50;9.30;;;5.40;;
38693;SDS011;24447;43.460;25.744;2023-06-19T10:07:18;9.80;;;5.25;;
38693;SDS011;24447;43.460;25.744;2023-06-19T10:10:01;12.95;;;5.57;;
38693;SDS011;24447;43.460;25.744;2023-06-19T10:12:43;10.73;;;5.70;;
38693;SDS011;24447;43.460;25.744;2023-06-19T10:17:49;9.52;;;5.00;;
38693;SDS011;24447;43.460;25.744;2023-06-19T10:22:57;11.35;;;5.80;;
38693;SDS011;24447;43.460;25.744;2023-06-19T10:25:24;10.45;;;4.55;;
38693;SDS011;24447;43.460;25.744;2023-06-19T10:27:54;10.10;;;5.45;;
38693;SDS011;24447;43.460;25.744;2023-06-19T10:30:20;13.70;;;6.18;;
38693;SDS011;24447;43.460;25.744;2023-06-19T10:32:49;10.48;;;6.00;;
38693;SDS011;24447;43.460;25.744;2023-06-19T10:35:15;9.67;;;5.67;;
38693;SDS011;24447;43.460;25.744;2023-06-19T10:37:42;15.95;;;6.63;;
38693;SDS011;24447;43.460;25.744;2023-06-19T10:40:10;10.30;;;5.32;;
38693;SDS011;24447;43.460;25.744;2023-06-19T10:42:37;11.38;;;5.22;;
38693;SDS011;24447;43.460;25.744;2023-06-19T10:45:04;11.10;;;5.20;;
38693;SDS011;24447;43.460;25.744;2023-06-19T10:47:34;7.35;;;4.82;;
38693;SDS011;24447;43.460;25.744;2023-06-19T10:50:01;10.00;;;4.80;;
38693;SDS011;24447;43.460;25.744;2023-06-19T10:52:28;10.02;;;5.18;;
38693;SDS011;24447;43.460;25.744;2023-06-19T10:54:55;9.55;;;5.03;;
38693;SDS011;24447;43.460;25.744;2023-06-19T10:57:30;8.75;;;5.05;;
38693;SDS011;24447;43.460;25.744;2023-06-19T10:59:57;8.32;;;4.75;;
38693;SDS011;24447;43.460;25.744;2023-06-19T11:02:23;9.65;;;4.60;;
38693;SDS011;24447;43.460;25.744;2023-06-19T11:04:54;9.15;;;5.28;;
38693;SDS011;24447;43.460;25.744;2023-06-19T11:07:21;10.18;;;4.97;;
38693;SDS011;24447;43.460;25.744;2023-06-19T11:09:50;9.15;;;4.07;;
38693;SDS011;24447;43.460;25.744;2023-06-19T11:12:20;7.25;;;4.88;;
38693;SDS011;24447;43.460;25.744;2023-06-19T11:14:47;7.80;;;4.70;;
38693;SDS011;24447;43.460;25.744;2023-06-19T11:17:16;6.53;;;3.85;;
38693;SDS011;24447;43.460;25.744;2023-06-19T11:19:47;13.85;;;5.95;;
38693;SDS011;24447;43.460;25.744;2023-06-19T11:22:13;9.02;;;5.00;;
38693;SDS011;24447;43.460;25.744;2023-06-19T11:24:45;12.13;;;5.38;;
38693;SDS011;24447;43.460;25.744;2023-06-19T11:27:22;9.25;;;4.90;;
38693;SDS011;24447;43.460;25.744;2023-06-19T11:29:57;8.10;;;5.13;;
38693;SDS011;24447;43.460;25.744;2023-06-19T11:32:23;8.48;;;4.78;;
38693;SDS011;24447;43.460;25.744;2023-06-19T11:34:56;10.43;;;5.72;;
38693;SDS011;24447;43.460;25.744;2023-06-19T11:37:22;8.40;;;4.55;;
38693;SDS011;24447;43.460;25.744;2023-06-19T11:39:49;8.68;;;4.30;;
38693;SDS011;24447;43.460;25.744;2023-06-19T11:42:17;8.37;;;4.47;;
38693;SDS011;24447;43.460;25.744;2023-06-19T11:44:57;8.63;;;3.92;;
38693;SDS011;24447;43.460;25.744;2023-06-19T11:47:29;5.80;;;4.05;;
38693;SDS011;24447;43.460;25.744;2023-06-19T11:49:56;7.80;;;4.35;;
38693;SDS011;24447;43.460;25.744;2023-06-19T11:52:22;6.13;;;3.90;;
38693;SDS011;24447;43.460;25.744;2023-06-19T11:54:48;9.05;;;4.95;;
38693;SDS011;24447;43.460;25.744;2023-06-19T11:57:14;10.80;;;4.47;;
38693;SDS011;24447;43.460;25.744;2023-06-19T11:59:40;10.85;;;4.57;;
38693;SDS011;24447;43.460;25.744;2023-06-19T12:02:06;8.63;;;3.67;;
38693;SDS011;24447;43.460;25.744;2023-06-19T12:04:33;14.10;;;4.07;;
38693;SDS011;24447;43.460;25.744;2023-06-19T12:06:59;10.45;;;4.47;;
38693;SDS011;24447;43.460;25.744;2023-06-19T12:09:25;8.10;;;4.43;;
38693;SDS011;24447;43.460;25.744;2023-06-19T12:11:51;7.47;;;3.85;;
38693;SDS011;24447;43.460;25.744;2023-06-19T12:14:17;6.28;;;3.42;;
38693;SDS011;24447;43.460;25.744;2023-06-19T12:16:47;5.20;;;3.42;;
38693;SDS011;24447;43.460;25.744;2023-06-19T12:19:13;8.20;;;4.10;;
38693;SDS011;24447;43.460;25.744;2023-06-19T12:21:39;7.30;;;4.13;;
38693;SDS011;24447;43.460;25.744;2023-06-19T12:24:05;9.65;;;3.55;;
38693;SDS011;24447;43.460;25.744;2023-06-19T12:26:31;16.27;;;4.65;;
38693;SDS011;24447;43.460;25.744;2023-06-19T12:29:02;7.40;;;3.47;;
38693;SDS011;24447;43.460;25.744;2023-06-19T12:31:29;12.48;;;4.10;;
38693;SDS011;24447;43.460;25.744;2023-06-19T12:33:55;8.07;;;3.90;;
38693;SDS011;24447;43.460;25.744;2023-06-19T12:36:21;11.15;;;4.18;;
38693;SDS011;24447;43.460;25.744;2023-06-19T12:49:49;10.35;;;4.53;;
38693;SDS011;24447;43.460;25.744;2023-06-19T12:52:14;9.60;;;3.97;;
38693;SDS011;24447;43.460;25.744;2023-06-19T12:54:40;12.38;;;5.55;;
38693;SDS011;24447;43.460;25.744;2023-06-19T12:57:07;10.63;;;4.78;;
38693;SDS011;24447;43.460;25.744;2023-06-19T12:59:33;8.93;;;4.70;;
38693;SDS011;24447;43.460;25.744;2023-06-19T13:01:59;7.50;;;4.55;;
38693;SDS011;24447;43.460;25.744;2023-06-19T13:04:25;11.38;;;5.38;;
38693;SDS011;24447;43.460;25.744;2023-06-19T13:06:50;12.82;;;4.70;;
38693;SDS011;24447;43.460;25.744;2023-06-19T13:09:16;8.65;;;4.03;;
38693;SDS011;24447;43.460;25.744;2023-06-19T13:11:42;6.85;;;4.13;;
38693;SDS011;24447;43.460;25.744;2023-06-19T13:14:08;9.80;;;4.63;;
38693;SDS011;24447;43.460;25.744;2023-06-19T13:16:34;9.95;;;4.20;;
38693;SDS011;24447;43.460;25.744;2023-06-19T13:19:00;9.88;;;4.60;;
38693;SDS011;24447;43.460;25.744;2023-06-19T13:21:26;9.13;;;4.72;;
38693;SDS011;24447;43.460;25.744;2023-06-19T13:23:52;12.25;;;5.13;;
38693;SDS011;24447;43.460;25.744;2023-06-19T13:26:18;18.00;;;5.07;;
38693;SDS011;24447;43.460;25.744;2023-06-19T13:28:44;10.20;;;4.88;;
38693;SDS011;24447;43.460;25.744;2023-06-19T13:31:10;17.65;;;5.93;;
38693;SDS011;24447;43.460;25.744;2023-06-19T13:33:35;8.48;;;4.72;;
38693;SDS011;24447;43.460;25.744;2023-06-19T13:36:01;6.47;;;3.90;;
38693;SDS011;24447;43.460;25.744;2023-06-19T13:38:27;7.72;;;4.00;;
38693;SDS011;24447;43.460;25.744;2023-06-19T13:40:53;10.10;;;4.50;;
38693;SDS011;24447;43.460;25.744;2023-06-19T13:43:19;7.65;;;4.28;;
38693;SDS011;24447;43.460;25.744;2023-06-19T13:45:48;16.77;;;5.45;;
38693;SDS011;24447;43.460;25.744;2023-06-19T13:48:14;7.57;;;4.53;;
38693;SDS011;24447;43.460;25.744;2023-06-19T13:50:40;8.00;;;4.40;;
38693;SDS011;24447;43.460;25.744;2023-06-19T13:53:06;10.27;;;5.15;;
38693;SDS011;24447;43.460;25.744;2023-06-19T13:55:32;7.55;;;4.10;;
38693;SDS011;24447;43.460;25.744;2023-06-19T13:57:58;7.53;;;5.05;;
38693;SDS011;24447;43.460;25.744;2023-06-19T14:00:24;10.55;;;5.07;;
38693;SDS011;24447;43.460;25.744;2023-06-19T14:02:50;9.77;;;4.57;;
38693;SDS011;24447;43.460;25.744;2023-06-19T14:05:16;13.07;;;5.00;;
38693;SDS011;24447;43.460;25.744;2023-06-19T14:07:43;11.07;;;4.88;;
38693;SDS011;24447;43.460;25.744;2023-06-19T14:10:09;9.88;;;4.95;;
38693;SDS011;24447;43.460;25.744;2023-06-19T14:12:35;17.27;;;6.13;;
38693;SDS011;24447;43.460;25.744;2023-06-19T14:15:01;14.75;;;5.78;;
38693;SDS011;24447;43.460;25.744;2023-06-19T14:17:27;8.27;;;4.88;;
38693;SDS011;24447;43.460;25.744;2023-06-19T14:19:53;9.82;;;4.57;;
38693;SDS011;24447;43.460;25.744;2023-06-19T14:22:22;12.07;;;5.05;;
38693;SDS011;24447;43.460;25.744;2023-06-19T14:24:48;7.45;;;4.43;;
38693;SDS011;24447;43.460;25.744;2023-06-19T14:27:14;7.70;;;4.15;;
38693;SDS011;24447;43.460;25.744;2023-06-19T14:29:40;8.55;;;4.18;;
38693;SDS011;24447;43.460;25.744;2023-06-19T14:32:06;9.38;;;4.40;;
38693;SDS011;24447;43.460;25.744;2023-06-19T14:34:32;10.30;;;4.75;;
38693;SDS011;24447;43.460;25.744;2023-06-19T14:36:57;11.70;;;5.55;;
38693;SDS011;24447;43.460;25.744;2023-06-19T14:39:23;12.38;;;5.82;;
38693;SDS011;24447;43.460;25.744;2023-06-19T14:41:49;20.42;;;5.38;;
38693;SDS011;24447;43.460;25.744;2023-06-19T14:44:15;9.15;;;4.90;;
38693;SDS011;24447;43.460;25.744;2023-06-19T14:46:41;9.98;;;4.80;;